sensor_id;sensor_type;location;lat;lon;timestamp;temperature;humidity
8707;DHT22;4390;49.302;9.306;2022-08-27T00:01:34;19.20;98.30
8707;DHT22;4390;49.302;9.306;2022-08-27T00:04:01;19.30;98.30
8707;DHT22;4390;49.302;9.306;2022-08-27T00:06:28;19.40;98.30
8707;DHT22;4390;49.302;9.306;2022-08-27T00:08:55;19.60;98.30
8707;DHT22;4390;49.302;9.306;2022-08-27T00:11:22;19.50;98.30
8707;DHT22;4390;49.302;9.306;2022-08-27T00:13:51;19.30;98.30
8707;DHT22;4390;49.302;9.306;2022-08-27T00:16:18;19.40;98.30
8707;DHT22;4390;49.302;9.306;2022-08-27T00:18:46;19.40;98.30
8707;DHT22;4390;49.302;9.306;2022-08-27T00:21:14;19.50;98.30
8707;DHT22;4390;49.302;9.306;2022-08-27T00:23:42;19.50;98.30
8707;DHT22;4390;49.302;9.306;2022-08-27T00:26:09;19.40;98.30
8707;DHT22;4390;49.302;9.306;2022-08-27T00:28:36;19.30;98.30
8707;DHT22;4390;49.302;9.306;2022-08-27T00:31:03;19.30;98.30
8707;DHT22;4390;49.302;9.306;2022-08-27T00:33:31;19.30;98.30
8707;DHT22;4390;49.302;9.306;2022-08-27T00:35:58;19.30;98.30
8707;DHT22;4390;49.302;9.306;2022-08-27T00:38:25;19.30;98.30
8707;DHT22;4390;49.302;9.306;2022-08-27T00:40:52;19.40;98.30
8707;DHT22;4390;49.302;9.306;2022-08-27T00:43:23;19.30;98.30
8707;DHT22;4390;49.302;9.306;2022-08-27T00:45:52;19.30;98.30
8707;DHT22;4390;49.302;9.306;2022-08-27T00:48:23;19.20;98.30
8707;DHT22;4390;49.302;9.306;2022-08-27T00:50:52;19.30;98.30
8707;DHT22;4390;49.302;9.306;2022-08-27T00:53:24;19.40;98.30
8707;DHT22;4390;49.302;9.306;2022-08-27T00:55:55;19.40;98.30
8707;DHT22;4390;49.302;9.306;2022-08-27T00:58:30;19.40;98.30
8707;DHT22;4390;49.302;9.306;2022-08-27T01:00:59;19.60;98.30
8707;DHT22;4390;49.302;9.306;2022-08-27T01:03:27;19.50;98.30
8707;DHT22;4390;49.302;9.306;2022-08-27T01:05:55;19.60;98.30
8707;DHT22;4390;49.302;9.306;2022-08-27T01:08:27;19.60;98.30
8707;DHT22;4390;49.302;9.306;2022-08-27T01:10:56;19.50;98.30
8707;DHT22;4390;49.302;9.306;2022-08-27T01:13:25;19.60;98.30
8707;DHT22;4390;49.302;9.306;2022-08-27T01:16:17;19.70;98.30
8707;DHT22;4390;49.302;9.306;2022-08-27T01:18:47;19.60;98.30
8707;DHT22;4390;49.302;9.306;2022-08-27T01:21:26;19.50;98.30
8707;DHT22;4390;49.302;9.306;2022-08-27T01:26:49;19.30;98.30
8707;DHT22;4390;49.302;9.306;2022-08-27T01:29:17;19.20;98.30
8707;DHT22;4390;49.302;9.306;2022-08-27T01:31:44;19.10;98.30
8707;DHT22;4390;49.302;9.306;2022-08-27T01:34:11;19.00;98.30
8707;DHT22;4390;49.302;9.306;2022-08-27T01:36:38;19.00;98.30
8707;DHT22;4390;49.302;9.306;2022-08-27T01:39:05;19.10;98.30
8707;DHT22;4390;49.302;9.306;2022-08-27T01:41:33;19.10;98.30
8707;DHT22;4390;49.302;9.306;2022-08-27T01:43:59;18.90;98.30
8707;DHT22;4390;49.302;9.306;2022-08-27T01:46:27;18.90;98.30
8707;DHT22;4390;49.302;9.306;2022-08-27T01:48:54;19.10;98.30
8707;DHT22;4390;49.302;9.306;2022-08-27T01:51:21;19.00;98.30
8707;DHT22;4390;49.302;9.306;2022-08-27T01:53:49;19.00;98.30
8707;DHT22;4390;49.302;9.306;2022-08-27T01:56:16;19.00;98.30
8707;DHT22;4390;49.302;9.306;2022-08-27T01:58:43;19.00;98.30
8707;DHT22;4390;49.302;9.306;2022-08-27T02:01:11;19.10;98.30
8707;DHT22;4390;49.302;9.306;2022-08-27T02:03:40;19.10;98.30
8707;DHT22;4390;49.302;9.306;2022-08-27T02:06:09;19.00;98.30
8707;DHT22;4390;49.302;9.306;2022-08-27T02:08:36;19.10;98.30
8707;DHT22;4390;49.302;9.306;2022-08-27T02:11:03;19.20;98.30
8707;DHT22;4390;49.302;9.306;2022-08-27T02:13:30;19.10;98.30
8707;DHT22;4390;49.302;9.306;2022-08-27T02:15:57;19.00;98.30
8707;DHT22;4390;49.302;9.306;2022-08-27T02:18:24;19.00;98.30
8707;DHT22;4390;49.302;9.306;2022-08-27T02:20:51;19.10;98.30
8707;DHT22;4390;49.302;9.306;2022-08-27T02:23:18;19.10;98.30
8707;DHT22;4390;49.302;9.306;2022-08-27T02:25:44;19.10;98.30
8707;DHT22;4390;49.302;9.306;2022-08-27T02:28:14;19.10;98.30
8707;DHT22;4390;49.302;9.306;2022-08-27T02:30:41;19.10;98.30
8707;DHT22;4390;49.302;9.306;2022-08-27T02:33:08;19.10;98.30
8707;DHT22;4390;49.302;9.306;2022-08-27T02:35:36;19.00;98.30
8707;DHT22;4390;49.302;9.306;2022-08-27T02:38:06;19.10;98.30
8707;DHT22;4390;49.302;9.306;2022-08-27T02:40:33;19.20;98.30
8707;DHT22;4390;49.302;9.306;2022-08-27T02:43:02;19.20;98.30
8707;DHT22;4390;49.302;9.306;2022-08-27T02:45:28;19.20;98.30
8707;DHT22;4390;49.302;9.306;2022-08-27T02:47:55;19.20;98.30
8707;DHT22;4390;49.302;9.306;2022-08-27T02:50:22;19.20;98.30
8707;DHT22;4390;49.302;9.306;2022-08-27T02:52:53;19.30;98.30
8707;DHT22;4390;49.302;9.306;2022-08-27T02:55:21;19.30;98.30
8707;DHT22;4390;49.302;9.306;2022-08-27T02:57:48;19.20;98.30
8707;DHT22;4390;49.302;9.306;2022-08-27T03:00:17;19.20;98.30
8707;DHT22;4390;49.302;9.306;2022-08-27T03:02:44;19.20;98.30
8707;DHT22;4390;49.302;9.306;2022-08-27T03:05:12;19.20;98.30
8707;DHT22;4390;49.302;9.306;2022-08-27T03:07:39;19.20;98.30
8707;DHT22;4390;49.302;9.306;2022-08-27T03:10:08;19.10;98.30
8707;DHT22;4390;49.302;9.306;2022-08-27T03:12:35;19.10;98.30
8707;DHT22;4390;49.302;9.306;2022-08-27T03:15:04;19.20;98.30
8707;DHT22;4390;49.302;9.306;2022-08-27T03:17:32;19.20;98.30
8707;DHT22;4390;49.302;9.306;2022-08-27T03:20:17;19.20;98.30
8707;DHT22;4390;49.302;9.306;2022-08-27T03:22:44;19.30;98.30
8707;DHT22;4390;49.302;9.306;2022-08-27T03:25:12;19.30;98.30
8707;DHT22;4390;49.302;9.306;2022-08-27T03:27:39;19.10;98.30
8707;DHT22;4390;49.302;9.306;2022-08-27T03:30:10;18.90;98.30
8707;DHT22;4390;49.302;9.306;2022-08-27T03:32:37;18.80;98.30
8707;DHT22;4390;49.302;9.306;2022-08-27T03:35:05;18.90;98.30
8707;DHT22;4390;49.302;9.306;2022-08-27T03:37:32;18.90;98.30
8707;DHT22;4390;49.302;9.306;2022-08-27T03:39:58;18.90;98.30
8707;DHT22;4390;49.302;9.306;2022-08-27T03:42:25;18.90;98.30
8707;DHT22;4390;49.302;9.306;2022-08-27T03:44:52;18.80;98.30
8707;DHT22;4390;49.302;9.306;2022-08-27T03:47:19;19.00;98.30
8707;DHT22;4390;49.302;9.306;2022-08-27T03:49:48;19.20;98.30
8707;DHT22;4390;49.302;9.306;2022-08-27T03:52:16;19.30;98.30
8707;DHT22;4390;49.302;9.306;2022-08-27T03:54:42;19.20;98.30
8707;DHT22;4390;49.302;9.306;2022-08-27T03:57:09;19.30;98.30
8707;DHT22;4390;49.302;9.306;2022-08-27T03:59:36;19.40;98.30
8707;DHT22;4390;49.302;9.306;2022-08-27T04:02:03;19.20;98.30
8707;DHT22;4390;49.302;9.306;2022-08-27T04:04:31;19.20;98.30
8707;DHT22;4390;49.302;9.306;2022-08-27T04:06:58;19.30;98.30
8707;DHT22;4390;49.302;9.306;2022-08-27T04:09:25;19.10;98.30
8707;DHT22;4390;49.302;9.306;2022-08-27T04:11:53;19.10;98.30
8707;DHT22;4390;49.302;9.306;2022-08-27T04:14:20;19.20;98.30
8707;DHT22;4390;49.302;9.306;2022-08-27T04:16:54;19.30;98.30
8707;DHT22;4390;49.302;9.306;2022-08-27T04:19:22;19.40;98.30
8707;DHT22;4390;49.302;9.306;2022-08-27T04:21:56;19.40;98.30
8707;DHT22;4390;49.302;9.306;2022-08-27T04:24:23;19.40;98.30
8707;DHT22;4390;49.302;9.306;2022-08-27T04:26:50;19.20;98.30
8707;DHT22;4390;49.302;9.306;2022-08-27T04:29:17;19.20;98.30
8707;DHT22;4390;49.302;9.306;2022-08-27T04:31:43;19.10;98.30
8707;DHT22;4390;49.302;9.306;2022-08-27T04:34:10;19.10;98.30
8707;DHT22;4390;49.302;9.306;2022-08-27T04:36:37;19.40;98.30
8707;DHT22;4390;49.302;9.306;2022-08-27T04:39:04;19.40;98.30
8707;DHT22;4390;49.302;9.306;2022-08-27T04:41:31;19.40;98.30
8707;DHT22;4390;49.302;9.306;2022-08-27T04:44:06;19.30;98.30
8707;DHT22;4390;49.302;9.306;2022-08-27T04:46:36;19.20;98.30
8707;DHT22;4390;49.302;9.306;2022-08-27T04:49:07;19.20;98.30
8707;DHT22;4390;49.302;9.306;2022-08-27T04:51:36;19.30;98.30
8707;DHT22;4390;49.302;9.306;2022-08-27T04:54:06;19.30;98.30
8707;DHT22;4390;49.302;9.306;2022-08-27T04:56:34;19.30;98.30
8707;DHT22;4390;49.302;9.306;2022-08-27T04:59:03;19.20;98.30
8707;DHT22;4390;49.302;9.306;2022-08-27T05:01:30;19.30;98.30
8707;DHT22;4390;49.302;9.306;2022-08-27T05:03:57;19.50;98.30
8707;DHT22;4390;49.302;9.306;2022-08-27T05:06:25;19.50;98.30
8707;DHT22;4390;49.302;9.306;2022-08-27T05:08:52;19.60;98.30
8707;DHT22;4390;49.302;9.306;2022-08-27T05:11:20;19.60;98.30
8707;DHT22;4390;49.302;9.306;2022-08-27T05:13:48;19.70;98.30
8707;DHT22;4390;49.302;9.306;2022-08-27T05:16:20;19.60;98.30
8707;DHT22;4390;49.302;9.306;2022-08-27T05:18:49;19.50;98.30
8707;DHT22;4390;49.302;9.306;2022-08-27T05:21:25;19.40;98.30
8707;DHT22;4390;49.302;9.306;2022-08-27T05:23:54;19.40;98.30
8707;DHT22;4390;49.302;9.306;2022-08-27T05:26:21;19.30;98.30
8707;DHT22;4390;49.302;9.306;2022-08-27T05:28:48;19.50;98.30
8707;DHT22;4390;49.302;9.306;2022-08-27T05:31:16;19.40;98.30
8707;DHT22;4390;49.302;9.306;2022-08-27T05:33:44;19.50;98.30
8707;DHT22;4390;49.302;9.306;2022-08-27T05:36:18;19.60;98.30
8707;DHT22;4390;49.302;9.306;2022-08-27T05:38:47;19.70;98.30
8707;DHT22;4390;49.302;9.306;2022-08-27T05:41:19;19.70;98.30
8707;DHT22;4390;49.302;9.306;2022-08-27T05:43:47;19.70;98.30
8707;DHT22;4390;49.302;9.306;2022-08-27T05:46:17;19.70;98.30
8707;DHT22;4390;49.302;9.306;2022-08-27T05:48:46;19.80;98.30
8707;DHT22;4390;49.302;9.306;2022-08-27T05:51:21;20.00;98.30
8707;DHT22;4390;49.302;9.306;2022-08-27T05:54:14;19.90;98.30
8707;DHT22;4390;49.302;9.306;2022-08-27T05:56:45;19.70;98.30
8707;DHT22;4390;49.302;9.306;2022-08-27T05:59:12;19.80;98.30
8707;DHT22;4390;49.302;9.306;2022-08-27T06:02:01;19.90;98.30
8707;DHT22;4390;49.302;9.306;2022-08-27T06:04:28;20.10;98.30
8707;DHT22;4390;49.302;9.306;2022-08-27T06:06:55;20.10;98.30
8707;DHT22;4390;49.302;9.306;2022-08-27T06:09:25;20.20;98.30
8707;DHT22;4390;49.302;9.306;2022-08-27T06:11:53;20.30;98.30
8707;DHT22;4390;49.302;9.306;2022-08-27T06:14:21;20.40;98.30
8707;DHT22;4390;49.302;9.306;2022-08-27T06:16:48;20.40;98.30
8707;DHT22;4390;49.302;9.306;2022-08-27T06:19:15;20.20;98.30
8707;DHT22;4390;49.302;9.306;2022-08-27T06:21:42;20.30;98.30
8707;DHT22;4390;49.302;9.306;2022-08-27T06:24:10;20.20;98.30
8707;DHT22;4390;49.302;9.306;2022-08-27T06:26:41;20.10;98.30
8707;DHT22;4390;49.302;9.306;2022-08-27T06:29:10;20.00;98.30
8707;DHT22;4390;49.302;9.306;2022-08-27T06:31:38;20.10;98.30
8707;DHT22;4390;49.302;9.306;2022-08-27T06:34:07;20.20;98.30
8707;DHT22;4390;49.302;9.306;2022-08-27T06:36:38;20.10;98.30
8707;DHT22;4390;49.302;9.306;2022-08-27T06:39:06;20.10;98.30
8707;DHT22;4390;49.302;9.306;2022-08-27T06:41:33;20.00;98.30
8707;DHT22;4390;49.302;9.306;2022-08-27T06:44:09;20.10;98.30
8707;DHT22;4390;49.302;9.306;2022-08-27T06:46:37;20.20;98.30
8707;DHT22;4390;49.302;9.306;2022-08-27T06:49:04;20.30;98.30
8707;DHT22;4390;49.302;9.306;2022-08-27T06:51:35;20.30;98.30
8707;DHT22;4390;49.302;9.306;2022-08-27T06:54:05;20.00;98.30
8707;DHT22;4390;49.302;9.306;2022-08-27T06:56:32;19.90;98.30
8707;DHT22;4390;49.302;9.306;2022-08-27T06:59:02;19.90;98.30
8707;DHT22;4390;49.302;9.306;2022-08-27T07:01:34;20.00;98.30
8707;DHT22;4390;49.302;9.306;2022-08-27T07:04:05;20.10;98.30
8707;DHT22;4390;49.302;9.306;2022-08-27T07:06:34;20.30;98.30
8707;DHT22;4390;49.302;9.306;2022-08-27T07:09:01;20.60;98.30
8707;DHT22;4390;49.302;9.306;2022-08-27T07:11:29;20.70;98.30
8707;DHT22;4390;49.302;9.306;2022-08-27T07:13:58;20.80;98.30
8707;DHT22;4390;49.302;9.306;2022-08-27T07:16:27;20.70;98.30
8707;DHT22;4390;49.302;9.306;2022-08-27T07:18:55;20.50;98.30
8707;DHT22;4390;49.302;9.306;2022-08-27T07:21:28;20.40;98.30
8707;DHT22;4390;49.302;9.306;2022-08-27T07:23:56;20.50;98.30
8707;DHT22;4390;49.302;9.306;2022-08-27T07:26:25;20.50;98.30
8707;DHT22;4390;49.302;9.306;2022-08-27T07:28:52;20.50;98.30
8707;DHT22;4390;49.302;9.306;2022-08-27T07:31:21;20.40;98.30
8707;DHT22;4390;49.302;9.306;2022-08-27T07:33:49;20.50;98.30
8707;DHT22;4390;49.302;9.306;2022-08-27T07:36:19;20.60;98.30
8707;DHT22;4390;49.302;9.306;2022-08-27T07:38:47;20.50;98.30
8707;DHT22;4390;49.302;9.306;2022-08-27T07:41:28;20.50;98.30
8707;DHT22;4390;49.302;9.306;2022-08-27T07:44:00;20.80;98.30
8707;DHT22;4390;49.302;9.306;2022-08-27T07:46:46;20.90;98.30
8707;DHT22;4390;49.302;9.306;2022-08-27T07:49:18;21.00;98.10
8707;DHT22;4390;49.302;9.306;2022-08-27T07:51:45;21.30;97.60
8707;DHT22;4390;49.302;9.306;2022-08-27T07:54:12;21.30;97.70
8707;DHT22;4390;49.302;9.306;2022-08-27T07:56:39;21.30;98.20
8707;DHT22;4390;49.302;9.306;2022-08-27T07:59:06;21.40;97.60
8707;DHT22;4390;49.302;9.306;2022-08-27T08:01:34;21.30;97.50
8707;DHT22;4390;49.302;9.306;2022-08-27T08:04:02;21.30;97.40
8707;DHT22;4390;49.302;9.306;2022-08-27T08:06:29;21.20;97.70
8707;DHT22;4390;49.302;9.306;2022-08-27T08:08:57;21.20;97.80
8707;DHT22;4390;49.302;9.306;2022-08-27T08:11:25;21.20;97.30
8707;DHT22;4390;49.302;9.306;2022-08-27T08:13:51;21.20;97.70
8707;DHT22;4390;49.302;9.306;2022-08-27T08:16:18;21.40;96.40
8707;DHT22;4390;49.302;9.306;2022-08-27T08:18:46;21.30;96.80
8707;DHT22;4390;49.302;9.306;2022-08-27T08:21:13;21.60;96.40
8707;DHT22;4390;49.302;9.306;2022-08-27T08:23:41;21.60;95.80
8707;DHT22;4390;49.302;9.306;2022-08-27T08:26:10;21.50;96.70
8707;DHT22;4390;49.302;9.306;2022-08-27T08:28:38;21.60;96.20
8707;DHT22;4390;49.302;9.306;2022-08-27T08:31:06;21.70;95.90
8707;DHT22;4390;49.302;9.306;2022-08-27T08:33:33;21.90;95.80
8707;DHT22;4390;49.302;9.306;2022-08-27T08:36:11;22.10;95.30
8707;DHT22;4390;49.302;9.306;2022-08-27T08:38:40;22.30;95.40
8707;DHT22;4390;49.302;9.306;2022-08-27T08:43:57;22.30;94.20
8707;DHT22;4390;49.302;9.306;2022-08-27T08:46:44;22.50;93.70
8707;DHT22;4390;49.302;9.306;2022-08-27T08:52:25;22.40;94.00
8707;DHT22;4390;49.302;9.306;2022-08-27T08:55:20;22.40;94.40
8707;DHT22;4390;49.302;9.306;2022-08-27T09:00:32;22.60;94.10
8707;DHT22;4390;49.302;9.306;2022-08-27T09:02:59;22.30;93.50
8707;DHT22;4390;49.302;9.306;2022-08-27T09:05:26;22.40;94.40
8707;DHT22;4390;49.302;9.306;2022-08-27T09:08:13;22.30;93.50
8707;DHT22;4390;49.302;9.306;2022-08-27T09:13:41;22.20;95.70
8707;DHT22;4390;49.302;9.306;2022-08-27T09:16:09;22.40;95.10
8707;DHT22;4390;49.302;9.306;2022-08-27T09:18:39;22.60;94.00
8707;DHT22;4390;49.302;9.306;2022-08-27T09:21:09;22.40;94.40
8707;DHT22;4390;49.302;9.306;2022-08-27T09:26:31;22.60;94.10
8707;DHT22;4390;49.302;9.306;2022-08-27T09:29:06;22.70;93.80
8707;DHT22;4390;49.302;9.306;2022-08-27T09:31:57;22.70;93.50
8707;DHT22;4390;49.302;9.306;2022-08-27T09:34:27;22.50;93.40
8707;DHT22;4390;49.302;9.306;2022-08-27T09:37:01;22.50;93.00
8707;DHT22;4390;49.302;9.306;2022-08-27T09:39:39;22.50;94.10
8707;DHT22;4390;49.302;9.306;2022-08-27T09:42:07;22.70;93.30
8707;DHT22;4390;49.302;9.306;2022-08-27T09:44:44;22.90;93.20
8707;DHT22;4390;49.302;9.306;2022-08-27T09:47:18;22.90;93.50
8707;DHT22;4390;49.302;9.306;2022-08-27T09:49:45;23.00;92.40
8707;DHT22;4390;49.302;9.306;2022-08-27T09:52:35;22.80;92.90
8707;DHT22;4390;49.302;9.306;2022-08-27T09:55:04;23.00;92.90
8707;DHT22;4390;49.302;9.306;2022-08-27T09:57:38;23.00;92.00
8707;DHT22;4390;49.302;9.306;2022-08-27T10:00:13;22.80;91.80
8707;DHT22;4390;49.302;9.306;2022-08-27T10:02:50;22.50;92.80
8707;DHT22;4390;49.302;9.306;2022-08-27T10:05:34;22.40;93.00
8707;DHT22;4390;49.302;9.306;2022-08-27T10:08:09;22.30;95.10
8707;DHT22;4390;49.302;9.306;2022-08-27T10:10:54;22.20;96.60
8707;DHT22;4390;49.302;9.306;2022-08-27T10:13:32;22.30;95.20
8707;DHT22;4390;49.302;9.306;2022-08-27T10:18:58;22.70;94.40
8707;DHT22;4390;49.302;9.306;2022-08-27T10:21:34;22.80;93.80
8707;DHT22;4390;49.302;9.306;2022-08-27T10:27:30;23.00;93.10
8707;DHT22;4390;49.302;9.306;2022-08-27T10:35:51;23.10;92.10
8707;DHT22;4390;49.302;9.306;2022-08-27T10:38:42;23.00;92.60
8707;DHT22;4390;49.302;9.306;2022-08-27T10:41:33;23.20;91.60
8707;DHT22;4390;49.302;9.306;2022-08-27T10:46:59;23.10;91.50
8707;DHT22;4390;49.302;9.306;2022-08-27T10:49:41;23.20;92.00
8707;DHT22;4390;49.302;9.306;2022-08-27T11:00:23;23.30;91.30
8707;DHT22;4390;49.302;9.306;2022-08-27T11:02:53;23.40;91.10
8707;DHT22;4390;49.302;9.306;2022-08-27T11:05:25;23.40;91.30
8707;DHT22;4390;49.302;9.306;2022-08-27T11:08:03;23.40;91.20
8707;DHT22;4390;49.302;9.306;2022-08-27T11:10:34;23.50;91.10
8707;DHT22;4390;49.302;9.306;2022-08-27T11:13:07;23.70;89.80
8707;DHT22;4390;49.302;9.306;2022-08-27T11:15:37;23.70;90.10
8707;DHT22;4390;49.302;9.306;2022-08-27T11:20:58;23.90;89.20
8707;DHT22;4390;49.302;9.306;2022-08-27T11:23:49;23.90;89.40
8707;DHT22;4390;49.302;9.306;2022-08-27T11:26:17;24.10;88.60
8707;DHT22;4390;49.302;9.306;2022-08-27T11:28:51;24.10;88.20
8707;DHT22;4390;49.302;9.306;2022-08-27T11:34:21;24.40;87.20
8707;DHT22;4390;49.302;9.306;2022-08-27T11:39:53;24.80;86.20
8707;DHT22;4390;49.302;9.306;2022-08-27T11:45:35;25.30;85.30
8707;DHT22;4390;49.302;9.306;2022-08-27T11:48:18;25.40;84.90
8707;DHT22;4390;49.302;9.306;2022-08-27T11:51:02;25.50;84.30
8707;DHT22;4390;49.302;9.306;2022-08-27T11:53:36;25.50;84.70
8707;DHT22;4390;49.302;9.306;2022-08-27T12:01:34;26.00;83.30
8707;DHT22;4390;49.302;9.306;2022-08-27T12:04:18;26.10;82.50
8707;DHT22;4390;49.302;9.306;2022-08-27T12:12:48;26.70;82.20
8707;DHT22;4390;49.302;9.306;2022-08-27T12:15:37;26.80;81.40
8707;DHT22;4390;49.302;9.306;2022-08-27T12:18:41;27.00;81.50
8707;DHT22;4390;49.302;9.306;2022-08-27T12:21:31;27.10;80.80
8707;DHT22;4390;49.302;9.306;2022-08-27T12:37:54;25.70;82.60
8707;DHT22;4390;49.302;9.306;2022-08-27T12:40:28;25.80;81.50
8707;DHT22;4390;49.302;9.306;2022-08-27T12:43:16;25.60;82.00
8707;DHT22;4390;49.302;9.306;2022-08-27T12:46:28;25.60;81.60
8707;DHT22;4390;49.302;9.306;2022-08-27T12:48:40;25.40;82.60
8707;DHT22;4390;49.302;9.306;2022-08-27T12:51:13;25.30;81.30
8707;DHT22;4390;49.302;9.306;2022-08-27T12:53:53;25.20;81.80
8707;DHT22;4390;49.302;9.306;2022-08-27T12:59:23;25.20;82.60
8707;DHT22;4390;49.302;9.306;2022-08-27T13:04:24;24.30;83.30
8707;DHT22;4390;49.302;9.306;2022-08-27T13:06:52;24.50;84.60
8707;DHT22;4390;49.302;9.306;2022-08-27T13:09:31;24.30;83.60
8707;DHT22;4390;49.302;9.306;2022-08-27T13:12:01;24.30;83.80
8707;DHT22;4390;49.302;9.306;2022-08-27T13:14:36;24.50;84.70
8707;DHT22;4390;49.302;9.306;2022-08-27T13:17:08;24.50;85.30
8707;DHT22;4390;49.302;9.306;2022-08-27T13:19:42;24.40;87.00
8707;DHT22;4390;49.302;9.306;2022-08-27T13:22:09;24.20;88.10
8707;DHT22;4390;49.302;9.306;2022-08-27T13:24:48;24.10;88.40
8707;DHT22;4390;49.302;9.306;2022-08-27T13:27:15;24.10;88.10
8707;DHT22;4390;49.302;9.306;2022-08-27T13:29:48;24.00;88.40
8707;DHT22;4390;49.302;9.306;2022-08-27T13:32:15;24.00;88.40
8707;DHT22;4390;49.302;9.306;2022-08-27T13:34:42;24.20;88.10
8707;DHT22;4390;49.302;9.306;2022-08-27T13:37:25;24.30;88.40
8707;DHT22;4390;49.302;9.306;2022-08-27T13:39:54;24.40;88.30
8707;DHT22;4390;49.302;9.306;2022-08-27T13:42:22;24.40;88.10
8707;DHT22;4390;49.302;9.306;2022-08-27T13:44:52;24.30;88.60
8707;DHT22;4390;49.302;9.306;2022-08-27T13:47:27;24.20;88.50
8707;DHT22;4390;49.302;9.306;2022-08-27T13:50:07;24.20;88.30
8707;DHT22;4390;49.302;9.306;2022-08-27T13:52:37;24.30;88.60
8707;DHT22;4390;49.302;9.306;2022-08-27T13:55:24;24.40;88.70
8707;DHT22;4390;49.302;9.306;2022-08-27T13:57:51;24.30;88.70
8707;DHT22;4390;49.302;9.306;2022-08-27T14:00:32;24.10;89.40
8707;DHT22;4390;49.302;9.306;2022-08-27T14:02:59;24.00;89.80
8707;DHT22;4390;49.302;9.306;2022-08-27T14:05:30;24.00;89.60
8707;DHT22;4390;49.302;9.306;2022-08-27T14:08:09;24.00;89.30
8707;DHT22;4390;49.302;9.306;2022-08-27T14:10:40;24.10;89.20
8707;DHT22;4390;49.302;9.306;2022-08-27T14:13:11;24.00;89.10
8707;DHT22;4390;49.302;9.306;2022-08-27T14:15:41;24.00;89.60
8707;DHT22;4390;49.302;9.306;2022-08-27T14:18:33;24.00;89.70
8707;DHT22;4390;49.302;9.306;2022-08-27T14:21:20;24.10;89.10
8707;DHT22;4390;49.302;9.306;2022-08-27T14:23:47;24.10;89.20
8707;DHT22;4390;49.302;9.306;2022-08-27T14:26:15;23.90;89.60
8707;DHT22;4390;49.302;9.306;2022-08-27T14:28:43;23.80;89.90
8707;DHT22;4390;49.302;9.306;2022-08-27T14:31:10;23.80;89.50
8707;DHT22;4390;49.302;9.306;2022-08-27T14:33:38;23.80;89.80
8707;DHT22;4390;49.302;9.306;2022-08-27T14:36:05;23.90;89.80
8707;DHT22;4390;49.302;9.306;2022-08-27T14:38:36;23.80;89.90
8707;DHT22;4390;49.302;9.306;2022-08-27T14:41:06;23.90;89.60
8707;DHT22;4390;49.302;9.306;2022-08-27T14:43:33;23.90;89.60
8707;DHT22;4390;49.302;9.306;2022-08-27T14:46:01;24.00;89.70
8707;DHT22;4390;49.302;9.306;2022-08-27T14:48:31;23.90;90.00
8707;DHT22;4390;49.302;9.306;2022-08-27T14:51:01;24.10;89.70
8707;DHT22;4390;49.302;9.306;2022-08-27T14:53:28;24.10;89.80
8707;DHT22;4390;49.302;9.306;2022-08-27T14:55:55;24.10;90.10
8707;DHT22;4390;49.302;9.306;2022-08-27T14:58:24;24.10;90.40
8707;DHT22;4390;49.302;9.306;2022-08-27T15:00:51;24.20;90.20
8707;DHT22;4390;49.302;9.306;2022-08-27T15:03:21;24.30;89.40
8707;DHT22;4390;49.302;9.306;2022-08-27T15:05:52;24.30;89.70
8707;DHT22;4390;49.302;9.306;2022-08-27T15:08:22;24.20;89.60
8707;DHT22;4390;49.302;9.306;2022-08-27T15:10:56;24.10;89.20
8707;DHT22;4390;49.302;9.306;2022-08-27T15:13:23;24.10;87.80
8707;DHT22;4390;49.302;9.306;2022-08-27T15:15:50;23.90;88.00
8707;DHT22;4390;49.302;9.306;2022-08-27T15:18:18;23.80;87.50
8707;DHT22;4390;49.302;9.306;2022-08-27T15:20:45;23.70;87.10
8707;DHT22;4390;49.302;9.306;2022-08-27T15:23:13;23.60;86.60
8707;DHT22;4390;49.302;9.306;2022-08-27T15:25:43;23.30;86.80
8707;DHT22;4390;49.302;9.306;2022-08-27T15:28:10;23.30;86.20
8707;DHT22;4390;49.302;9.306;2022-08-27T15:30:37;23.20;86.40
8707;DHT22;4390;49.302;9.306;2022-08-27T15:33:04;23.10;86.70
8707;DHT22;4390;49.302;9.306;2022-08-27T15:35:32;23.20;86.70
8707;DHT22;4390;49.302;9.306;2022-08-27T15:37:59;23.10;86.80
8707;DHT22;4390;49.302;9.306;2022-08-27T15:40:27;23.20;87.00
8707;DHT22;4390;49.302;9.306;2022-08-27T15:42:58;23.00;87.60
8707;DHT22;4390;49.302;9.306;2022-08-27T15:45:25;22.80;88.00
8707;DHT22;4390;49.302;9.306;2022-08-27T15:47:54;22.80;88.50
8707;DHT22;4390;49.302;9.306;2022-08-27T15:50:21;22.80;88.40
8707;DHT22;4390;49.302;9.306;2022-08-27T15:52:50;22.70;88.40
8707;DHT22;4390;49.302;9.306;2022-08-27T15:55:25;22.70;89.00
8707;DHT22;4390;49.302;9.306;2022-08-27T15:57:52;22.90;89.10
8707;DHT22;4390;49.302;9.306;2022-08-27T16:00:21;22.90;89.40
8707;DHT22;4390;49.302;9.306;2022-08-27T16:02:48;22.80;89.50
8707;DHT22;4390;49.302;9.306;2022-08-27T16:05:17;22.60;90.40
8707;DHT22;4390;49.302;9.306;2022-08-27T16:07:44;22.50;90.20
8707;DHT22;4390;49.302;9.306;2022-08-27T16:10:12;22.60;90.10
8707;DHT22;4390;49.302;9.306;2022-08-27T16:12:40;22.70;90.10
8707;DHT22;4390;49.302;9.306;2022-08-27T16:15:07;22.60;90.40
8707;DHT22;4390;49.302;9.306;2022-08-27T16:17:34;22.60;90.40
8707;DHT22;4390;49.302;9.306;2022-08-27T16:20:03;22.50;90.00
8707;DHT22;4390;49.302;9.306;2022-08-27T16:22:30;22.60;90.10
8707;DHT22;4390;49.302;9.306;2022-08-27T16:24:56;22.60;90.20
8707;DHT22;4390;49.302;9.306;2022-08-27T16:27:23;22.60;90.10
8707;DHT22;4390;49.302;9.306;2022-08-27T16:29:50;22.50;90.30
8707;DHT22;4390;49.302;9.306;2022-08-27T16:32:17;22.50;91.10
8707;DHT22;4390;49.302;9.306;2022-08-27T16:34:45;22.60;91.00
8707;DHT22;4390;49.302;9.306;2022-08-27T16:37:21;22.30;91.70
8707;DHT22;4390;49.302;9.306;2022-08-27T16:39:47;22.00;92.30
8707;DHT22;4390;49.302;9.306;2022-08-27T16:42:14;22.10;92.00
8707;DHT22;4390;49.302;9.306;2022-08-27T16:44:41;22.00;92.40
8707;DHT22;4390;49.302;9.306;2022-08-27T16:47:08;22.00;91.90
8707;DHT22;4390;49.302;9.306;2022-08-27T16:49:35;21.90;92.20
8707;DHT22;4390;49.302;9.306;2022-08-27T16:52:20;21.90;92.30
8707;DHT22;4390;49.302;9.306;2022-08-27T16:54:50;22.10;92.10
8707;DHT22;4390;49.302;9.306;2022-08-27T16:57:17;22.00;92.00
8707;DHT22;4390;49.302;9.306;2022-08-27T16:59:43;22.00;93.00
8707;DHT22;4390;49.302;9.306;2022-08-27T17:02:25;22.00;93.10
8707;DHT22;4390;49.302;9.306;2022-08-27T17:04:56;21.90;93.60
8707;DHT22;4390;49.302;9.306;2022-08-27T17:07:43;21.90;93.70
8707;DHT22;4390;49.302;9.306;2022-08-27T17:10:15;22.10;93.60
8707;DHT22;4390;49.302;9.306;2022-08-27T17:12:42;21.90;94.00
8707;DHT22;4390;49.302;9.306;2022-08-27T17:15:11;21.70;94.60
8707;DHT22;4390;49.302;9.306;2022-08-27T17:17:40;21.70;95.60
8707;DHT22;4390;49.302;9.306;2022-08-27T17:20:07;21.60;95.70
8707;DHT22;4390;49.302;9.306;2022-08-27T17:22:34;21.40;96.00
8707;DHT22;4390;49.302;9.306;2022-08-27T17:25:00;21.20;96.80
8707;DHT22;4390;49.302;9.306;2022-08-27T17:27:27;21.50;96.10
8707;DHT22;4390;49.302;9.306;2022-08-27T17:29:54;21.50;95.90
8707;DHT22;4390;49.302;9.306;2022-08-27T17:32:21;21.50;95.90
8707;DHT22;4390;49.302;9.306;2022-08-27T17:34:48;21.50;95.80
8707;DHT22;4390;49.302;9.306;2022-08-27T17:37:14;21.30;96.00
8707;DHT22;4390;49.302;9.306;2022-08-27T17:39:44;21.20;96.80
8707;DHT22;4390;49.302;9.306;2022-08-27T17:42:11;21.30;97.00
8707;DHT22;4390;49.302;9.306;2022-08-27T17:44:38;21.50;96.00
8707;DHT22;4390;49.302;9.306;2022-08-27T17:47:06;21.50;96.50